createdAt,value
2017-05-13T00:01:08.706Z,99524
2017-05-13T00:03:37.756Z,99525
2017-05-13T00:06:06.748Z,99519
2017-05-13T00:08:35.772Z,99513
2017-05-13T00:11:04.763Z,99527
2017-05-13T00:13:40.461Z,99526
2017-05-13T00:16:09.576Z,99531
2017-05-13T00:18:38.562Z,99529
2017-05-13T00:21:07.589Z,99521
2017-05-13T00:23:40.331Z,99534
2017-05-13T00:26:37.958Z,99528
2017-05-13T00:29:06.941Z,99530
2017-05-13T00:31:35.931Z,99531
2017-05-13T00:34:04.966Z,99527
2017-05-13T00:36:33.951Z,99540
2017-05-13T00:39:02.946Z,99535
2017-05-13T00:41:31.983Z,99539
2017-05-13T00:44:00.970Z,99533
2017-05-13T00:46:30.053Z,99534
2017-05-13T00:48:59.151Z,99527
2017-05-13T00:51:28.132Z,99517
2017-05-13T00:53:57.114Z,99517
2017-05-13T00:56:26.227Z,99527
2017-05-13T00:58:55.308Z,99523
2017-05-13T01:01:24.291Z,99530
2017-05-13T01:03:53.322Z,99530
2017-05-13T01:06:22.314Z,99525
2017-05-13T01:08:51.306Z,99533
2017-05-13T01:11:20.338Z,99535
2017-05-13T01:13:50.069Z,99533
2017-05-13T01:16:19.065Z,99527
2017-05-13T01:18:48.086Z,99529
2017-05-13T01:21:17.073Z,99523
2017-05-13T01:23:46.116Z,99524
2017-05-13T01:26:15.158Z,99524
2017-05-13T01:28:44.152Z,99532
2017-05-13T01:31:13.154Z,99544
2017-05-13T01:33:42.183Z,99535
2017-05-13T01:36:37.669Z,99535
2017-05-13T01:39:06.703Z,99543
2017-05-13T01:41:36.435Z,99551
2017-05-13T01:44:05.461Z,99552
2017-05-13T01:46:40.308Z,99549
2017-05-13T01:49:09.333Z,99565
2017-05-13T01:51:38.366Z,99556
2017-05-13T01:54:07.453Z,99562
2017-05-13T01:56:36.481Z,99563
2017-05-13T01:59:05.537Z,99564
2017-05-13T02:01:34.537Z,99560
2017-05-13T02:07:04.776Z,99588
2017-05-13T02:09:33.769Z,99586
2017-05-13T02:12:02.770Z,99582
2017-05-13T02:14:31.810Z,99592
2017-05-13T02:17:01.528Z,99591
2017-05-13T02:19:31.291Z,99592
2017-05-13T02:22:00.274Z,99601
2017-05-13T02:24:29.262Z,99610
2017-05-13T02:26:58.309Z,99598
2017-05-13T02:29:40.440Z,99600
2017-05-13T02:32:09.462Z,99599
2017-05-13T02:34:38.437Z,99604
2017-05-13T02:37:07.429Z,99607
2017-05-13T02:39:36.631Z,99601
2017-05-13T02:42:05.628Z,99602
2017-05-13T02:44:34.608Z,99610
2017-05-13T02:47:03.639Z,99600
2017-05-13T02:49:32.623Z,99594
2017-05-13T02:52:01.617Z,99603
2017-05-13T02:54:30.638Z,99588
2017-05-13T02:56:59.629Z,99590
2017-05-13T03:02:30.967Z,99605
2017-05-13T03:04:59.944Z,99596
2017-05-13T03:07:28.929Z,99597
2017-05-13T03:09:57.961Z,99601
2017-05-13T03:12:26.952Z,99608
2017-05-13T03:14:55.935Z,99597
2017-05-13T03:17:24.978Z,99611
2017-05-13T03:19:53.968Z,99620
2017-05-13T03:22:22.949Z,99611
2017-05-13T03:24:52.719Z,99621
2017-05-13T03:27:21.709Z,99623
2017-05-13T03:29:50.703Z,99637
2017-05-13T03:32:19.734Z,99638
2017-05-13T03:34:49.467Z,99640
2017-05-13T03:37:18.459Z,99634
2017-05-13T03:39:47.481Z,99637
2017-05-13T03:42:39.882Z,99638
2017-05-13T03:45:08.905Z,99637
2017-05-13T03:47:37.894Z,99647
2017-05-13T03:50:06.886Z,99642
2017-05-13T03:52:39.570Z,99643
2017-05-13T03:55:38.981Z,99650
2017-05-13T03:58:08.013Z,99652
2017-05-13T04:00:37.749Z,99655
2017-05-13T04:03:06.774Z,99662
2017-05-13T04:05:35.799Z,99662
2017-05-13T04:08:04.800Z,99668
2017-05-13T04:10:34.525Z,99675
2017-05-13T04:13:04.297Z,99666
2017-05-13T04:15:33.283Z,99670
2017-05-13T04:18:02.283Z,99675
2017-05-13T04:20:39.362Z,99673
2017-05-13T04:23:38.051Z,99676
2017-05-13T04:26:07.078Z,99681
2017-05-13T04:28:36.805Z,99690
2017-05-13T04:31:05.790Z,99687
2017-05-13T04:33:34.839Z,99685
2017-05-13T04:36:03.832Z,99685
2017-05-13T04:38:32.824Z,99685
2017-05-13T04:41:01.849Z,99689
2017-05-13T04:43:31.590Z,99695
2017-05-13T04:46:00.615Z,99703
2017-05-13T04:48:39.780Z,99703
2017-05-13T04:51:09.563Z,99699
2017-05-13T04:53:38.554Z,99696
2017-05-13T04:56:07.547Z,99710
2017-05-13T04:58:36.578Z,99705
2017-05-13T05:01:06.311Z,99700
2017-05-13T05:03:35.349Z,99703
2017-05-13T05:06:04.334Z,99705
2017-05-13T05:08:33.321Z,99702
2017-05-13T05:11:02.358Z,99702
2017-05-13T05:13:32.087Z,99699
2017-05-13T05:16:01.067Z,99703
2017-05-13T05:18:30.103Z,99702
2017-05-13T05:20:59.094Z,99704
2017-05-13T05:23:28.076Z,99713
2017-05-13T05:25:57.085Z,99705
2017-05-13T05:28:26.078Z,99706
2017-05-13T05:30:55.085Z,99708
2017-05-13T05:36:02.626Z,99717
2017-05-13T05:38:32.396Z,99712
2017-05-13T05:41:01.389Z,99708
2017-05-13T05:43:30.379Z,99719
2017-05-13T05:45:59.411Z,99709
2017-05-13T05:48:38.984Z,99706
2017-05-13T05:51:08.014Z,99710
2017-05-13T05:53:36.998Z,99713
2017-05-13T05:56:05.978Z,99719
2017-05-13T05:58:40.878Z,99715
2017-05-13T06:01:38.399Z,99717
2017-05-13T06:04:07.687Z,99715
2017-05-13T06:06:36.676Z,99702
2017-05-13T06:09:05.670Z,99711
2017-05-13T06:11:34.698Z,99715
2017-05-13T06:14:04.428Z,99720
2017-05-13T06:16:33.419Z,99723
2017-05-13T06:19:02.773Z,99723
2017-05-13T06:21:31.782Z,99721
2017-05-13T06:24:01.502Z,99726
2017-05-13T06:26:39.874Z,99724
2017-05-13T06:29:08.861Z,99739
2017-05-13T06:31:37.837Z,99737
2017-05-13T06:34:06.904Z,99734
2017-05-13T06:36:35.899Z,99746
2017-05-13T06:39:04.883Z,99739
2017-05-13T06:41:33.911Z,99748
2017-05-13T06:44:02.892Z,99746
2017-05-13T06:46:31.882Z,99748
2017-05-13T06:49:00.920Z,99750
2017-05-13T06:51:29.913Z,99757
2017-05-13T06:53:58.951Z,99763
2017-05-13T06:56:27.944Z,99766
2017-05-13T06:58:56.931Z,99757
2017-05-13T07:01:25.919Z,99763
2017-05-13T07:03:54.909Z,99769
2017-05-13T07:06:23.900Z,99767
2017-05-13T07:08:53.630Z,99766
2017-05-13T07:11:39.342Z,99771
2017-05-13T07:14:08.333Z,99771
2017-05-13T07:16:37.317Z,99773
2017-05-13T07:19:06.585Z,99773
2017-05-13T07:21:35.568Z,99770
2017-05-13T07:24:05.290Z,99774
2017-05-13T07:26:40.048Z,99777
2017-05-13T07:29:09.034Z,99788
2017-05-13T07:31:48.691Z,99785
2017-05-13T07:34:17.687Z,99793
2017-05-13T07:36:46.681Z,99788
2017-05-13T07:39:15.667Z,99791
2017-05-13T07:44:45.761Z,99788
2017-05-13T07:47:38.732Z,99788
2017-05-13T07:50:37.953Z,99795
2017-05-13T07:56:07.787Z,99801
2017-05-13T07:58:40.445Z,99805
2017-05-13T08:04:37.830Z,99807
2017-05-13T08:10:07.432Z,99817
2017-05-13T08:12:40.013Z,99818
2017-05-13T08:15:39.590Z,99823
2017-05-13T08:18:08.586Z,99819
2017-05-13T08:20:40.144Z,99826
2017-05-13T08:23:09.880Z,99827
2017-05-13T08:25:39.383Z,99820
2017-05-13T08:28:08.367Z,99827
2017-05-13T08:30:37.359Z,99825
2017-05-13T08:36:07.035Z,99819
2017-05-13T08:38:39.842Z,99824
2017-05-13T08:41:39.117Z,99824
2017-05-13T08:44:08.114Z,99828
2017-05-13T08:46:40.871Z,99827
2017-05-13T08:49:38.164Z,99831
2017-05-13T08:52:07.163Z,99829
2017-05-13T08:54:36.238Z,99832
2017-05-13T08:57:05.239Z,99831
2017-05-13T08:59:34.230Z,99842
2017-05-13T09:02:03.217Z,99839
2017-05-13T09:04:32.212Z,99838
2017-05-13T09:07:01.186Z,99842
2017-05-13T09:09:30.171Z,99830
2017-05-13T09:11:59.159Z,99844
2017-05-13T09:14:41.143Z,99839
2017-05-13T09:17:10.130Z,99844
2017-05-13T09:19:39.121Z,99839
2017-05-13T09:22:08.095Z,99842
2017-05-13T09:24:37.814Z,99849
2017-05-13T09:27:06.810Z,99849
2017-05-13T09:29:35.790Z,99840
2017-05-13T09:32:05.516Z,99850
2017-05-13T09:34:34.501Z,99847
2017-05-13T09:37:03.494Z,99847
2017-05-13T09:39:32.483Z,99853
2017-05-13T09:45:03.393Z,99856
2017-05-13T09:47:32.375Z,99856
2017-05-13T09:50:01.361Z,99854
2017-05-13T09:52:30.387Z,99850
2017-05-13T09:54:59.414Z,99849
2017-05-13T09:57:28.403Z,99840
2017-05-13T09:59:57.439Z,99850
2017-05-13T10:02:26.444Z,99853
2017-05-13T10:04:55.434Z,99847
2017-05-13T10:07:24.458Z,99856
2017-05-13T10:12:55.882Z,99866
2017-05-13T10:15:24.906Z,99864
2017-05-13T10:17:53.886Z,99860
2017-05-13T10:20:22.923Z,99868
2017-05-13T10:22:51.906Z,99876
2017-05-13T10:25:20.936Z,99863
2017-05-13T10:27:49.929Z,99876
2017-05-13T10:30:18.908Z,99876
2017-05-13T10:32:47.931Z,99867
2017-05-13T10:35:16.931Z,99872
2017-05-13T10:37:45.958Z,99866
2017-05-13T10:42:54.559Z,99884
2017-05-13T10:45:23.583Z,99885
2017-05-13T10:47:53.357Z,99881
2017-05-13T10:50:22.344Z,99875
2017-05-13T10:52:51.371Z,99876
2017-05-13T10:55:40.875Z,99888
2017-05-13T10:58:09.932Z,99890
2017-05-13T11:00:38.918Z,99877
2017-05-13T11:03:07.895Z,99892
2017-05-13T11:05:36.910Z,99887
2017-05-13T11:08:06.677Z,99889
2017-05-13T11:10:35.671Z,99893
2017-05-13T11:13:04.716Z,99887
2017-05-13T11:15:34.444Z,99889
2017-05-13T11:18:03.427Z,99882
2017-05-13T11:20:39.411Z,99887
2017-05-13T11:23:08.402Z,99885
2017-05-13T11:25:37.393Z,99888
2017-05-13T11:28:06.415Z,99881
2017-05-13T11:30:35.409Z,99884
2017-05-13T11:33:04.395Z,99889
2017-05-13T11:35:33.425Z,99891
2017-05-13T11:38:03.146Z,99895
2017-05-13T11:40:32.916Z,99893
2017-05-13T11:43:01.914Z,99895
2017-05-13T11:45:30.895Z,99895
2017-05-13T11:47:59.931Z,99889
2017-05-13T11:50:40.008Z,99895
2017-05-13T11:53:09.043Z,99893
2017-05-13T11:55:38.071Z,99885
2017-05-13T11:58:07.802Z,99892
2017-05-13T12:00:36.827Z,99895
2017-05-13T12:03:06.446Z,99891
2017-05-13T12:05:42.147Z,99902
2017-05-13T12:08:11.216Z,99895
2017-05-13T12:10:40.940Z,99900
2017-05-13T12:13:09.981Z,99911
2017-05-13T12:15:40.082Z,99912
2017-05-13T12:18:09.110Z,99898
2017-05-13T12:20:38.096Z,99908
2017-05-13T12:23:07.091Z,99910
2017-05-13T12:25:36.120Z,99898
2017-05-13T12:28:05.894Z,99905
2017-05-13T12:30:40.851Z,99913
2017-05-13T12:33:10.613Z,99922
2017-05-13T12:35:39.617Z,99929
2017-05-13T12:38:08.655Z,99916
2017-05-13T12:40:38.379Z,99919
2017-05-13T12:43:07.448Z,99929
2017-05-13T12:45:37.185Z,99938
2017-05-13T12:48:06.172Z,99935
2017-05-13T12:50:35.197Z,99940
2017-05-13T12:53:04.173Z,99925
2017-05-13T12:55:33.154Z,99937
2017-05-13T12:58:02.174Z,99931
2017-05-13T13:00:31.166Z,99936
2017-05-13T13:03:00.145Z,99940
2017-05-13T13:05:29.164Z,99947
2017-05-13T13:07:58.197Z,99934
2017-05-13T13:10:27.958Z,99934
2017-05-13T13:12:56.955Z,99940
2017-05-13T13:15:25.943Z,99937
2017-05-13T13:17:54.974Z,99946
2017-05-13T13:20:23.958Z,99937
2017-05-13T13:22:52.938Z,99934
2017-05-13T13:25:21.968Z,99941
2017-05-13T13:27:51.694Z,99933
2017-05-13T13:30:40.300Z,99935
2017-05-13T13:33:09.280Z,99933
2017-05-13T13:35:38.310Z,99935
2017-05-13T13:38:08.065Z,99934
2017-05-13T13:40:37.087Z,99943
2017-05-13T13:43:06.075Z,99936
2017-05-13T13:45:35.104Z,99949
2017-05-13T13:48:04.835Z,99956
2017-05-13T13:50:33.814Z,99942
2017-05-13T13:53:02.838Z,99943
2017-05-13T13:55:31.819Z,99938
2017-05-13T13:58:00.790Z,99934
2017-05-13T14:00:29.807Z,99948
2017-05-13T14:02:58.799Z,99954
2017-05-13T14:05:27.830Z,99949
2017-05-13T14:07:56.819Z,99951
2017-05-13T14:10:25.809Z,99959
2017-05-13T14:15:56.460Z,99954
2017-05-13T14:18:25.433Z,99947
2017-05-13T14:23:38.590Z,99959
2017-05-13T14:26:07.573Z,99960
2017-05-13T14:28:36.590Z,99949
2017-05-13T14:31:05.618Z,99960
2017-05-13T14:33:34.674Z,99956
2017-05-13T14:36:03.657Z,99957
2017-05-13T14:38:33.220Z,99960
2017-05-13T14:41:02.282Z,99956
2017-05-13T14:43:32.016Z,99953
2017-05-13T14:46:01.046Z,99953
2017-05-13T14:48:30.042Z,99960
2017-05-13T14:50:59.032Z,99959
2017-05-13T14:53:28.041Z,99948
2017-05-13T14:55:57.053Z,99942
2017-05-13T14:58:26.778Z,99949
2017-05-13T15:00:56.534Z,99945
2017-05-13T15:03:25.523Z,99951
2017-05-13T15:05:54.540Z,99949
2017-05-13T15:08:40.519Z,99950
2017-05-13T15:11:09.547Z,99961
2017-05-13T15:13:39.265Z,99953
2017-05-13T15:16:09.041Z,99954
2017-05-13T15:18:41.054Z,99964
2017-05-13T15:21:10.069Z,99955
2017-05-13T15:23:39.086Z,99958
2017-05-13T15:26:08.075Z,99959
2017-05-13T15:28:37.067Z,99968
2017-05-13T15:31:06.106Z,99969
2017-05-13T15:33:35.093Z,99971
2017-05-13T15:39:06.935Z,99982
2017-05-13T15:41:35.923Z,99985
2017-05-13T15:44:04.949Z,99982
2017-05-13T15:46:41.059Z,99986
2017-05-13T15:49:10.074Z,99983
2017-05-13T15:51:39.092Z,99976
2017-05-13T15:54:08.872Z,99980
2017-05-13T15:56:37.870Z,99977
2017-05-13T15:59:06.895Z,99962
2017-05-13T16:01:36.622Z,99598
2017-05-13T16:07:06.616Z,100034
2017-05-13T16:09:35.597Z,100056
2017-05-13T16:12:04.583Z,100124
2017-05-13T16:14:39.452Z,99981
2017-05-13T16:17:09.177Z,99985
2017-05-13T16:19:38.149Z,99986
2017-05-13T16:22:07.907Z,99984
2017-05-13T16:24:36.889Z,99995
2017-05-13T16:27:05.907Z,100000
2017-05-13T16:29:34.887Z,100001
2017-05-13T16:32:03.915Z,100013
2017-05-13T16:34:32.893Z,99999
2017-05-13T16:37:01.881Z,100012
2017-05-13T16:39:30.910Z,100012
2017-05-13T16:42:00.640Z,100031
2017-05-13T16:44:29.624Z,100028
2017-05-13T16:46:58.659Z,100031
2017-05-13T16:49:27.647Z,100027
2017-05-13T16:51:56.674Z,100027
2017-05-13T16:54:26.634Z,100022
2017-05-13T16:59:57.022Z,100032
2017-05-13T17:02:26.020Z,100042
2017-05-13T17:04:55.019Z,100048
2017-05-13T17:07:24.058Z,100056
2017-05-13T17:09:53.051Z,100053
2017-05-13T17:12:22.029Z,100057
2017-05-13T17:14:51.057Z,100065
2017-05-13T17:17:20.058Z,100069
2017-05-13T17:19:49.037Z,100068
2017-05-13T17:22:18.052Z,100081
2017-05-13T17:24:47.090Z,100079
2017-05-13T17:27:16.088Z,100084
2017-05-13T17:29:45.072Z,100091
2017-05-13T17:32:14.945Z,100088
2017-05-13T17:34:43.937Z,100092
2017-05-13T17:37:12.929Z,100094
2017-05-13T17:39:41.945Z,100099
2017-05-13T17:42:38.545Z,100100
2017-05-13T17:45:07.570Z,100104
2017-05-13T17:47:36.554Z,100099
2017-05-13T17:50:05.537Z,100107
2017-05-13T17:52:34.549Z,100111
2017-05-13T17:55:03.581Z,100116
2017-05-13T17:57:32.576Z,100108
2017-05-13T18:00:01.568Z,100111
2017-05-13T18:02:30.590Z,100125
2017-05-13T18:08:00.018Z,100125
2017-05-13T18:13:30.870Z,100132
2017-05-13T18:19:21.696Z,100136
2017-05-13T18:21:50.677Z,100143
2017-05-13T18:24:39.171Z,100149
2017-05-13T18:27:08.903Z,100149
2017-05-13T18:29:37.929Z,100148
2017-05-13T18:32:06.927Z,100159
2017-05-13T18:34:35.990Z,100160
2017-05-13T18:43:10.628Z,100183
2017-05-13T18:45:40.384Z,100186
2017-05-13T18:51:38.201Z,100178
2017-05-13T19:00:14.388Z,100199
2017-05-13T19:02:43.378Z,100201
2017-05-13T19:08:39.342Z,100214
2017-05-13T19:11:38.836Z,100216
2017-05-13T19:14:07.987Z,100226
2017-05-13T19:16:40.698Z,100231
2017-05-13T19:24:40.548Z,100241
2017-05-13T19:27:39.050Z,100239
2017-05-13T19:33:04.266Z,100251
2017-05-13T19:38:41.526Z,100255
2017-05-13T19:41:38.445Z,100250
2017-05-13T19:44:38.302Z,100249
2017-05-13T19:53:39.441Z,100256
2017-05-13T19:56:09.186Z,100255
2017-05-13T20:01:20.072Z,100242
2017-05-13T20:06:46.353Z,100254
2017-05-13T20:09:15.387Z,100262
2017-05-13T20:11:45.132Z,100255
2017-05-13T20:14:14.217Z,100254
2017-05-13T20:16:43.196Z,100257
2017-05-13T20:19:12.189Z,100259
2017-05-13T20:21:41.253Z,100254
2017-05-13T20:24:40.085Z,100259
2017-05-13T20:27:38.827Z,100257
2017-05-13T20:30:31.035Z,100258
2017-05-13T20:33:00.231Z,100261
2017-05-13T20:35:29.235Z,100259
2017-05-13T20:37:58.233Z,100255
2017-05-13T20:40:40.361Z,100261
2017-05-13T20:43:10.089Z,100256
2017-05-13T20:45:40.072Z,100262
2017-05-13T20:48:09.126Z,100259
2017-05-13T20:53:16.564Z,100270
2017-05-13T20:55:45.761Z,100264
2017-05-13T20:58:14.751Z,100265
2017-05-13T21:00:43.783Z,100267
2017-05-13T21:03:13.511Z,100272
2017-05-13T21:06:02.034Z,100273
2017-05-13T21:08:31.027Z,100272
2017-05-13T21:11:00.762Z,100267
2017-05-13T21:13:29.801Z,100270
2017-05-13T21:19:00.245Z,100276
2017-05-13T21:21:39.637Z,100272
2017-05-13T21:24:08.678Z,100272
2017-05-13T21:26:37.669Z,100281
2017-05-13T21:29:06.660Z,100284
2017-05-13T21:31:35.705Z,100281
2017-05-13T21:34:04.699Z,100283
2017-05-13T21:39:39.356Z,100292
2017-05-13T21:42:08.353Z,100288
2017-05-13T21:44:37.337Z,100291
2017-05-13T21:47:06.359Z,100301
2017-05-13T21:49:35.349Z,100297
2017-05-13T21:55:05.230Z,100306
2017-05-13T21:57:34.951Z,100310
2017-05-13T22:00:03.939Z,100315
2017-05-13T22:02:32.985Z,100314
2017-05-13T22:05:01.977Z,100325
2017-05-13T22:10:33.041Z,100325
2017-05-13T22:13:02.035Z,100336
2017-05-13T22:15:31.038Z,100340
2017-05-13T22:18:00.087Z,100332
2017-05-13T22:20:29.085Z,100331
2017-05-13T22:22:58.083Z,100336
2017-05-13T22:25:27.123Z,100347
2017-05-13T22:30:57.626Z,100365
2017-05-13T22:33:39.766Z,100355
2017-05-13T22:36:39.949Z,100358
2017-05-13T22:39:08.942Z,100359
2017-05-13T22:41:37.926Z,100369
2017-05-13T22:44:06.962Z,100369
2017-05-13T22:46:35.966Z,100383
2017-05-13T22:49:05.689Z,100375
2017-05-13T22:54:36.675Z,100377
2017-05-13T22:57:05.666Z,100381
2017-05-13T22:59:34.653Z,100380
2017-05-13T23:02:03.687Z,100380
2017-05-13T23:04:40.077Z,100380
2017-05-13T23:07:12.089Z,100383
2017-05-13T23:09:41.073Z,100376
2017-05-13T23:12:10.071Z,100384
2017-05-13T23:14:39.120Z,100379
2017-05-13T23:17:08.855Z,100386
2017-05-13T23:19:37.838Z,100392
2017-05-13T23:22:06.985Z,100398
2017-05-13T23:24:35.974Z,100400
2017-05-13T23:27:04.968Z,100399
2017-05-13T23:29:40.075Z,100407
2017-05-13T23:32:39.667Z,100401
2017-05-13T23:35:08.703Z,100402
2017-05-13T23:37:37.690Z,100404
2017-05-13T23:40:06.776Z,100395
2017-05-13T23:42:35.977Z,100394
2017-05-13T23:45:04.969Z,100403
2017-05-13T23:47:33.965Z,100396
2017-05-13T23:50:03.149Z,100393
2017-05-13T23:52:32.176Z,100392
2017-05-13T23:55:01.218Z,100397
2017-05-13T23:57:30.257Z,100398
